createdAt,value
2023-04-05T00:01:25.511Z,100982.84
2023-04-05T00:03:57.636Z,100975.75
2023-04-05T00:06:27.110Z,100979.09
2023-04-05T00:08:55.653Z,100977.31
2023-04-05T00:11:24.773Z,100963.38
2023-04-05T00:13:53.423Z,100973.50
2023-04-05T00:16:21.875Z,100964.75
2023-04-05T00:18:51.828Z,100963.63
2023-04-05T00:21:26.502Z,100971.13
2023-04-05T00:23:58.551Z,100969.22
2023-04-05T00:26:27.895Z,100972.47
2023-04-05T00:28:59.083Z,100965.41
2023-04-05T00:31:27.517Z,100967.00
2023-04-05T00:33:55.958Z,100960.00
2023-04-05T00:36:26.327Z,100969.44
2023-04-05T00:38:56.126Z,100969.31
2023-04-05T00:41:24.618Z,100971.69
2023-04-05T00:43:53.187Z,100965.50
2023-04-05T00:46:21.818Z,100960.91
2023-04-05T00:48:51.225Z,100956.53
2023-04-05T00:51:20.243Z,100947.75
2023-04-05T00:53:52.892Z,100950.34
2023-04-05T00:56:23.003Z,100940.81
2023-04-05T00:58:53.262Z,100942.59
2023-04-05T01:01:23.360Z,100947.75
2023-04-05T01:03:59.853Z,100948.56
2023-04-05T01:06:52.725Z,100945.16
2023-04-05T01:09:35.776Z,100945.84
2023-04-05T01:12:08.052Z,100950.91
2023-04-05T01:14:45.925Z,100949.91
2023-04-05T01:17:16.431Z,100951.47
2023-04-05T01:19:48.276Z,100949.53
2023-04-05T01:22:46.675Z,100943.50
2023-04-05T01:25:36.805Z,100939.09
2023-04-05T01:28:36.778Z,100931.25
2023-04-05T01:31:09.801Z,100925.97
2023-04-05T01:33:47.306Z,100926.78
2023-04-05T01:36:21.572Z,100929.34
2023-04-05T01:38:51.983Z,100926.53
2023-04-05T01:41:21.518Z,100929.00
2023-04-05T01:43:49.876Z,100922.06
2023-04-05T01:46:19.733Z,100922.72
2023-04-05T01:48:48.421Z,100925.06
2023-04-05T01:51:16.901Z,100924.03
2023-04-05T01:53:46.825Z,100917.09
2023-04-05T01:56:16.133Z,100916.19
2023-04-05T01:58:44.675Z,100917.75
2023-04-05T02:01:13.307Z,100916.88
2023-04-05T02:03:43.297Z,100918.44
2023-04-05T02:06:11.966Z,100918.28
2023-04-05T02:08:40.610Z,100912.81
2023-04-05T02:11:09.096Z,100908.41
2023-04-05T02:13:37.629Z,100911.00
2023-04-05T02:16:06.355Z,100906.63
2023-04-05T02:18:35.195Z,100917.72
2023-04-05T02:21:06.752Z,100904.72
2023-04-05T02:23:36.068Z,100902.91
2023-04-05T02:26:04.670Z,100898.41
2023-04-05T02:28:33.178Z,100901.78
2023-04-05T02:31:01.529Z,100904.16
2023-04-05T02:33:30.136Z,100899.53
2023-04-05T02:35:58.593Z,100905.34
2023-04-05T02:38:28.510Z,100899.97
2023-04-05T02:40:57.014Z,100906.69
2023-04-05T02:43:25.914Z,100906.56
2023-04-05T02:45:54.363Z,100906.47
2023-04-05T02:48:23.046Z,100892.53
2023-04-05T02:50:52.455Z,100895.88
2023-04-05T02:53:21.275Z,100898.38
2023-04-05T02:55:59.835Z,100890.41
2023-04-05T02:58:29.533Z,100903.16
2023-04-05T03:00:58.139Z,100900.38
2023-04-05T03:03:32.362Z,100901.03
2023-04-05T03:06:09.909Z,100904.13
2023-04-05T03:08:46.441Z,100898.84
2023-04-05T03:11:18.414Z,100896.03
2023-04-05T03:13:51.435Z,100899.41
2023-04-05T03:16:40.197Z,100896.72
2023-04-05T03:19:17.170Z,100900.84
2023-04-05T03:21:47.051Z,100899.84
2023-04-05T03:24:27.673Z,100896.25
2023-04-05T03:27:04.228Z,100896.03
2023-04-05T03:29:36.969Z,100887.25
2023-04-05T03:32:14.001Z,100890.59
2023-04-05T03:34:49.038Z,100888.81
2023-04-05T03:37:19.493Z,100889.34
2023-04-05T03:39:58.185Z,100888.31
2023-04-05T03:42:28.097Z,100884.75
2023-04-05T03:44:57.042Z,100883.72
2023-04-05T03:47:26.331Z,100878.44
2023-04-05T03:49:55.129Z,100882.72
2023-04-05T03:52:23.633Z,100879.09
2023-04-05T03:54:52.405Z,100877.31
2023-04-05T03:57:24.480Z,100871.91
2023-04-05T03:59:58.305Z,100876.81
2023-04-05T04:02:31.178Z,100878.38
2023-04-05T04:04:59.785Z,100876.59
2023-04-05T04:07:29.572Z,100881.75
2023-04-05T04:09:58.064Z,100881.50
2023-04-05T04:12:26.609Z,100877.91
2023-04-05T04:15:01.807Z,100870.97
2023-04-05T04:17:48.684Z,100872.53
2023-04-05T04:20:35.878Z,100870.72
2023-04-05T04:23:18.698Z,100875.88
2023-04-05T04:26:26.913Z,100876.66
2023-04-05T04:29:17.279Z,100871.28
2023-04-05T04:32:26.784Z,100875.41
2023-04-05T04:35:18.239Z,100873.56
2023-04-05T04:38:06.241Z,100874.38
2023-04-05T04:40:51.031Z,100872.44
2023-04-05T04:43:42.891Z,100869.75
2023-04-05T04:46:42.746Z,100866.19
2023-04-05T04:49:18.863Z,100874.66
2023-04-05T04:51:49.086Z,100867.72
2023-04-05T04:54:22.221Z,100872.88
2023-04-05T04:56:50.673Z,100875.44
2023-04-05T04:59:19.232Z,100875.31
2023-04-05T05:01:47.805Z,100874.28
2023-04-05T05:04:16.476Z,100875.06
2023-04-05T05:06:46.442Z,100873.28
2023-04-05T05:09:14.884Z,100873.16
2023-04-05T05:11:56.943Z,100873.91
2023-04-05T05:14:25.480Z,100877.28
2023-04-05T05:16:54.670Z,100880.66
2023-04-05T05:19:23.136Z,100877.94
2023-04-05T05:21:56.567Z,100871.00
2023-04-05T05:24:25.084Z,100874.34
2023-04-05T05:26:53.519Z,100879.47
2023-04-05T05:29:21.942Z,100876.81
2023-04-05T05:31:51.515Z,100876.81
2023-04-05T05:34:20.171Z,100881.97
2023-04-05T05:36:53.448Z,100875.88
2023-04-05T05:39:24.198Z,100871.53
2023-04-05T05:41:52.650Z,100875.00
2023-04-05T05:44:21.299Z,100870.72
2023-04-05T05:46:49.740Z,100877.69
2023-04-05T05:49:18.384Z,100874.22
2023-04-05T05:51:47.355Z,100875.13
2023-04-05T05:54:15.810Z,100875.22
2023-04-05T05:56:45.676Z,100878.81
2023-04-05T05:59:14.473Z,100879.84
2023-04-05T06:01:46.440Z,100879.06
2023-04-05T06:04:16.534Z,100881.13
2023-04-05T06:06:46.730Z,100877.78
2023-04-05T06:09:16.173Z,100879.81
2023-04-05T06:11:55.626Z,100885.09
2023-04-05T06:14:25.647Z,100881.84
2023-04-05T06:16:54.218Z,100877.84
2023-04-05T06:19:23.779Z,100873.06
2023-04-05T06:21:52.266Z,100881.81
2023-04-05T06:24:20.974Z,100877.03
2023-04-05T06:26:51.996Z,100873.88
2023-04-05T06:29:20.549Z,100882.78
2023-04-05T06:31:49.050Z,100881.44
2023-04-05T06:34:17.480Z,100878.44
2023-04-05T06:36:46.578Z,100872.88
2023-04-05T06:39:15.533Z,100873.34
2023-04-05T06:41:44.049Z,100872.03
2023-04-05T06:44:13.934Z,100868.25
2023-04-05T06:46:42.391Z,100874.66
2023-04-05T06:49:10.816Z,100876.00
2023-04-05T06:51:39.299Z,100880.09
2023-04-05T06:54:07.777Z,100883.25
2023-04-05T06:56:36.211Z,100874.28
2023-04-05T06:59:05.184Z,100873.06
2023-04-05T07:01:35.065Z,100869.38
2023-04-05T07:04:03.624Z,100871.75
2023-04-05T07:06:34.602Z,100865.47
2023-04-05T07:09:04.104Z,100869.53
2023-04-05T07:11:32.931Z,100863.25
2023-04-05T07:14:01.832Z,100856.16
2023-04-05T07:16:30.234Z,100859.44
2023-04-05T07:19:00.013Z,100858.28
2023-04-05T07:21:28.389Z,100864.13
2023-04-05T07:24:00.715Z,100859.63
2023-04-05T07:26:29.112Z,100856.03
2023-04-05T07:28:57.459Z,100861.81
2023-04-05T07:31:25.826Z,100862.50
2023-04-05T07:33:54.215Z,100853.69
2023-04-05T07:36:23.977Z,100854.56
2023-04-05T07:38:52.302Z,100856.09
2023-04-05T07:41:20.759Z,100857.63
2023-04-05T07:43:49.059Z,100864.31
2023-04-05T07:46:17.682Z,100853.59
2023-04-05T07:48:48.323Z,100859.53
2023-04-05T07:51:16.842Z,100859.34
2023-04-05T07:53:46.637Z,100860.75
2023-04-05T07:56:15.236Z,100863.16
2023-04-05T07:58:43.665Z,100853.44
2023-04-05T08:01:12.610Z,100855.63
2023-04-05T08:03:41.084Z,100858.03
2023-04-05T08:06:14.129Z,100863.78
2023-04-05T08:08:42.801Z,100853.03
2023-04-05T08:11:12.640Z,100857.03
2023-04-05T08:13:41.818Z,100861.78
2023-04-05T08:16:10.997Z,100861.38
2023-04-05T08:18:39.802Z,100854.03
2023-04-05T08:21:08.187Z,100857.09
2023-04-05T08:23:36.600Z,100863.56
2023-04-05T08:26:07.725Z,100855.38
2023-04-05T08:28:37.617Z,100851.56
2023-04-05T08:31:06.143Z,100849.53
2023-04-05T08:33:34.837Z,100847.41
2023-04-05T08:36:06.572Z,100853.88
2023-04-05T08:38:35.400Z,100856.25
2023-04-05T08:41:11.272Z,100849.03
2023-04-05T08:43:54.281Z,100853.78
2023-04-05T08:46:23.854Z,100846.47
2023-04-05T08:48:52.481Z,100851.13
2023-04-05T08:51:21.993Z,100850.59
2023-04-05T08:53:51.052Z,100846.66
2023-04-05T08:56:22.849Z,100845.41
2023-04-05T08:59:00.155Z,100844.19
2023-04-05T09:01:30.547Z,100842.03
2023-04-05T09:04:02.596Z,100839.06
2023-04-05T09:06:31.254Z,100839.50
2023-04-05T09:08:59.900Z,100838.28
2023-04-05T09:11:28.828Z,100846.53
2023-04-05T09:13:58.543Z,100838.25
2023-04-05T09:16:27.488Z,100832.59
2023-04-05T09:18:55.950Z,100831.09
2023-04-05T09:21:24.395Z,100835.84
2023-04-05T09:23:55.740Z,100832.78
2023-04-05T09:26:25.308Z,100825.19
2023-04-05T09:29:01.604Z,100832.53
2023-04-05T09:31:34.734Z,100826.88
2023-04-05T09:34:05.806Z,100833.31
2023-04-05T09:36:35.197Z,100831.13
2023-04-05T09:39:08.010Z,100823.63
2023-04-05T09:41:37.682Z,100825.75
2023-04-05T09:44:07.395Z,100820.06
2023-04-05T09:46:37.961Z,100819.59
2023-04-05T09:49:09.487Z,100817.41
2023-04-05T09:51:39.394Z,100821.28
2023-04-05T09:54:12.188Z,100815.53
2023-04-05T09:56:42.471Z,100826.16
2023-04-05T09:59:13.495Z,100826.41
2023-04-05T10:01:45.297Z,100834.56
2023-04-05T10:04:13.961Z,100821.69
2023-04-05T10:06:43.916Z,100817.69
2023-04-05T10:09:15.097Z,100812.78
2023-04-05T10:11:45.246Z,100807.00
2023-04-05T10:14:15.865Z,100814.25
2023-04-05T10:16:53.391Z,100813.50
2023-04-05T10:19:30.263Z,100802.47
2023-04-05T10:22:03.409Z,100801.09
2023-04-05T10:24:37.619Z,100804.06
2023-04-05T10:27:10.205Z,100798.19
2023-04-05T10:29:52.627Z,100796.78
2023-04-05T10:32:31.252Z,100792.03
2023-04-05T10:35:11.004Z,100795.22
2023-04-05T10:37:53.978Z,100790.56
2023-04-05T10:40:23.220Z,100795.41
2023-04-05T10:42:52.024Z,100792.38
2023-04-05T10:45:23.278Z,100795.19
2023-04-05T10:48:09.566Z,100786.69
2023-04-05T10:50:39.626Z,100788.75
2023-04-05T10:53:09.864Z,100783.69
2023-04-05T10:55:40.296Z,100779.63
2023-04-05T10:58:08.863Z,100782.56
2023-04-05T11:00:38.788Z,100774.97
2023-04-05T11:03:07.330Z,100772.56
2023-04-05T11:05:37.723Z,100770.38
2023-04-05T11:08:07.778Z,100763.44
2023-04-05T11:10:37.905Z,100758.47
2023-04-05T11:13:11.675Z,100757.69
2023-04-05T11:15:41.645Z,100755.16
2023-04-05T11:18:12.046Z,100761.75
2023-04-05T11:20:52.359Z,100760.28
2023-04-05T11:23:22.208Z,100758.84
2023-04-05T11:25:55.623Z,100747.06
2023-04-05T11:28:26.476Z,100749.22
2023-04-05T11:30:58.698Z,100744.13
2023-04-05T11:33:57.296Z,100744.13
2023-04-05T11:36:34.651Z,100744.25
2023-04-05T11:39:25.138Z,100746.47
2023-04-05T11:42:00.257Z,100744.28
2023-04-05T11:44:29.323Z,100738.78
2023-04-05T11:46:59.158Z,100734.59
2023-04-05T11:49:27.453Z,100742.56
2023-04-05T11:51:56.439Z,100735.84
2023-04-05T11:54:34.754Z,100727.63
2023-04-05T11:57:03.801Z,100728.22
2023-04-05T11:59:33.817Z,100720.88
2023-04-05T12:02:07.981Z,100716.75
2023-04-05T12:04:37.142Z,100715.41
2023-04-05T12:07:13.063Z,100714.19
2023-04-05T12:10:08.587Z,100710.44
2023-04-05T12:12:38.933Z,100709.22
2023-04-05T12:15:10.618Z,100713.16
2023-04-05T12:17:49.581Z,100705.84
2023-04-05T12:20:21.792Z,100704.69
2023-04-05T12:22:51.132Z,100694.78
2023-04-05T12:25:20.992Z,100686.59
2023-04-05T12:27:49.558Z,100683.56
2023-04-05T12:30:19.873Z,100696.34
2023-04-05T12:32:52.877Z,100688.84
2023-04-05T12:35:24.367Z,100684.00
2023-04-05T12:37:53.045Z,100685.16
2023-04-05T12:40:23.068Z,100673.25
2023-04-05T12:42:52.187Z,100676.06
2023-04-05T12:45:24.669Z,100668.22
2023-04-05T12:47:58.266Z,100671.69
2023-04-05T12:50:28.897Z,100671.03
2023-04-05T12:52:59.990Z,100669.59
2023-04-05T12:55:30.178Z,100660.03
2023-04-05T12:58:00.921Z,100654.88
2023-04-05T13:00:30.949Z,100651.41
2023-04-05T13:03:01.249Z,100648.66
2023-04-05T13:05:31.266Z,100649.47
2023-04-05T13:08:00.493Z,100653.25
2023-04-05T13:10:28.957Z,100648.31
2023-04-05T13:12:57.910Z,100643.47
2023-04-05T13:15:27.190Z,100648.13
2023-04-05T13:17:55.812Z,100636.97
2023-04-05T13:20:25.658Z,100639.06
2023-04-05T13:22:54.101Z,100637.53
2023-04-05T13:25:22.522Z,100629.06
2023-04-05T13:27:50.996Z,100619.84
2023-04-05T13:30:19.594Z,100628.06
2023-04-05T13:32:47.918Z,100618.59
2023-04-05T13:35:16.468Z,100622.16
2023-04-05T13:37:46.389Z,100617.16
2023-04-05T13:40:14.812Z,100614.84
2023-04-05T13:42:43.295Z,100615.19
2023-04-05T13:45:12.236Z,100608.34
2023-04-05T13:47:40.688Z,100604.09
2023-04-05T13:50:09.748Z,100604.25
2023-04-05T13:52:38.442Z,100598.19
2023-04-05T13:55:08.849Z,100598.38
2023-04-05T13:57:37.272Z,100590.44
2023-04-05T14:00:06.797Z,100593.06
2023-04-05T14:02:41.667Z,100598.47
2023-04-05T14:05:10.626Z,100586.31
2023-04-05T14:07:39.455Z,100589.16
2023-04-05T14:10:11.501Z,100584.03
2023-04-05T14:12:39.936Z,100574.47
2023-04-05T14:15:09.224Z,100573.69
2023-04-05T14:17:37.801Z,100572.03
2023-04-05T14:20:08.067Z,100567.66
2023-04-05T14:22:36.608Z,100573.06
2023-04-05T14:25:07.994Z,100573.69
2023-04-05T14:27:42.088Z,100564.81
2023-04-05T14:30:12.458Z,100569.34
2023-04-05T14:32:41.395Z,100562.56
2023-04-05T14:35:10.806Z,100551.31
2023-04-05T14:37:39.276Z,100554.03
2023-04-05T14:40:08.708Z,100545.28
2023-04-05T14:42:48.504Z,100538.31
2023-04-05T14:45:18.072Z,100543.63
2023-04-05T14:47:46.691Z,100545.16
2023-04-05T14:50:15.341Z,100539.66
2023-04-05T14:52:43.825Z,100529.06
2023-04-05T14:55:13.504Z,100538.00
2023-04-05T14:57:43.885Z,100541.69
2023-04-05T15:00:13.889Z,100529.44
2023-04-05T15:02:42.804Z,100533.16
2023-04-05T15:05:11.616Z,100529.69
2023-04-05T15:07:40.344Z,100535.94
2023-04-05T15:10:09.863Z,100533.41
2023-04-05T15:12:38.454Z,100534.38
2023-04-05T15:15:09.328Z,100530.88
2023-04-05T15:17:37.937Z,100528.28
2023-04-05T15:20:07.599Z,100528.28
2023-04-05T15:22:36.463Z,100525.69
2023-04-05T15:25:05.759Z,100520.44
2023-04-05T15:27:34.310Z,100522.28
2023-04-05T15:30:02.833Z,100517.00
2023-04-05T15:32:34.003Z,100506.44
2023-04-05T15:35:02.792Z,100514.38
2023-04-05T15:37:31.501Z,100507.31
2023-04-05T15:40:02.593Z,100504.69
2023-04-05T15:42:32.130Z,100504.69
2023-04-05T15:45:00.602Z,100501.16
2023-04-05T15:47:29.186Z,100502.03
2023-04-05T15:49:59.032Z,100509.06
2023-04-05T15:52:27.549Z,100501.97
2023-04-05T15:54:56.235Z,100496.53
2023-04-05T15:57:25.568Z,100495.53
2023-04-05T15:59:54.491Z,100492.75
2023-04-05T16:02:23.018Z,100491.63
2023-04-05T16:04:51.573Z,100494.25
2023-04-05T16:07:21.604Z,100492.53
2023-04-05T16:09:50.102Z,100492.63
2023-04-05T16:12:18.633Z,100488.31
2023-04-05T16:14:47.097Z,100481.25
2023-04-05T16:17:16.071Z,100481.31
2023-04-05T16:19:44.648Z,100483.09
2023-04-05T16:22:13.276Z,100476.94
2023-04-05T16:24:44.174Z,100480.53
2023-04-05T16:27:13.547Z,100476.16
2023-04-05T16:29:42.088Z,100478.81
2023-04-05T16:32:10.847Z,100477.88
2023-04-05T16:34:39.355Z,100476.94
2023-04-05T16:37:07.776Z,100481.31
2023-04-05T16:39:36.242Z,100483.06
2023-04-05T16:42:06.342Z,100476.84
2023-04-05T16:44:34.815Z,100481.22
2023-04-05T16:47:03.269Z,100485.56
2023-04-05T16:49:31.768Z,100485.47
2023-04-05T16:52:00.321Z,100483.63
2023-04-05T16:54:28.831Z,100479.16
2023-04-05T16:56:57.706Z,100479.97
2023-04-05T16:59:27.565Z,100479.88
2023-04-05T17:01:56.157Z,100481.50
2023-04-05T17:04:24.781Z,100480.47
2023-04-05T17:06:53.249Z,100477.53
2023-04-05T17:09:22.965Z,100487.03
2023-04-05T17:11:51.511Z,100483.22
2023-04-05T17:14:20.181Z,100480.34
2023-04-05T17:16:50.137Z,100474.88
2023-04-05T17:19:18.781Z,100480.75
2023-04-05T17:21:48.649Z,100473.47
2023-04-05T17:24:18.419Z,100477.59
2023-04-05T17:26:47.458Z,100472.09
2023-04-05T17:29:17.596Z,100485.88
2023-04-05T17:31:46.395Z,100482.09
2023-04-05T17:34:16.786Z,100478.22
2023-04-05T17:36:46.570Z,100481.50
2023-04-05T17:39:21.532Z,100482.09
2023-04-05T17:41:50.984Z,100490.66
2023-04-05T17:44:21.740Z,100486.06
2023-04-05T17:46:57.619Z,100482.34
2023-04-05T17:49:40.564Z,100489.03
2023-04-05T17:52:09.354Z,100484.28
2023-04-05T17:54:38.225Z,100488.31
2023-04-05T17:57:12.773Z,100483.59
2023-04-05T17:59:41.451Z,100483.22
2023-04-05T18:02:11.129Z,100485.56
2023-04-05T18:04:41.885Z,100487.81
2023-04-05T18:07:10.492Z,100494.50
2023-04-05T18:09:41.928Z,100499.41
2023-04-05T18:12:10.804Z,100496.41
2023-04-05T18:14:39.557Z,100500.44
2023-04-05T18:17:08.325Z,100500.97
2023-04-05T18:19:37.983Z,100495.38
2023-04-05T18:22:08.067Z,100501.16
2023-04-05T18:24:36.727Z,100498.22
2023-04-05T18:27:05.626Z,100499.63
2023-04-05T18:29:37.815Z,100507.16
2023-04-05T18:32:07.027Z,100504.09
2023-04-05T18:34:36.105Z,100509.03
2023-04-05T18:37:04.790Z,100501.63
2023-04-05T18:39:34.700Z,100506.50
2023-04-05T18:42:04.222Z,100511.38
2023-04-05T18:44:32.924Z,100511.03
2023-04-05T18:47:01.635Z,100514.19
2023-04-05T18:49:30.293Z,100518.22
2023-04-05T18:51:58.824Z,100516.97
2023-04-05T18:54:27.594Z,100513.22
2023-04-05T18:56:57.631Z,100512.03
2023-04-05T18:59:26.230Z,100527.44
2023-04-05T19:01:54.932Z,100522.78
2023-04-05T19:04:23.572Z,100524.19
2023-04-05T19:06:52.300Z,100537.69
2023-04-05T19:09:21.994Z,100532.06
2023-04-05T19:11:50.658Z,100529.97
2023-04-05T19:14:20.813Z,100541.94
2023-04-05T19:16:49.480Z,100532.00
2023-04-05T19:19:19.047Z,100539.53
2023-04-05T19:21:47.645Z,100544.47
2023-04-05T19:24:16.271Z,100542.44
2023-04-05T19:26:45.779Z,100540.31
2023-04-05T19:29:14.467Z,100541.59
2023-04-05T19:31:44.815Z,100549.84
2023-04-05T19:34:13.681Z,100546.06
2023-04-05T19:36:42.460Z,100548.34
2023-04-05T19:39:12.265Z,100546.31
2023-04-05T19:41:40.926Z,100545.97
2023-04-05T19:44:12.554Z,100539.47
2023-04-05T19:46:41.841Z,100534.75
2023-04-05T19:49:14.301Z,100534.47
2023-04-05T19:51:43.300Z,100541.91
2023-04-05T19:54:14.535Z,100542.47
2023-04-05T19:56:43.192Z,100536.00
2023-04-05T19:59:30.247Z,100540.06
2023-04-05T20:02:00.065Z,100538.00
2023-04-05T20:04:34.435Z,100530.81
2023-04-05T20:07:03.878Z,100535.75
2023-04-05T20:09:34.212Z,100536.44
2023-04-05T20:12:05.658Z,100532.75
2023-04-05T20:14:42.024Z,100532.59
2023-04-05T20:17:12.370Z,100534.22
2023-04-05T20:19:55.833Z,100530.59
2023-04-05T20:22:24.395Z,100536.44
2023-04-05T20:24:53.063Z,100530.91
2023-04-05T20:27:22.073Z,100537.50
2023-04-05T20:29:52.395Z,100534.44
2023-04-05T20:32:22.237Z,100528.00
2023-04-05T20:34:52.321Z,100532.84
2023-04-05T20:37:21.010Z,100526.53
2023-04-05T20:39:50.437Z,100522.91
2023-04-05T20:42:19.097Z,100525.13
2023-04-05T20:44:48.013Z,100525.56
2023-04-05T20:47:16.637Z,100526.00
2023-04-05T20:49:47.628Z,100529.16
2023-04-05T20:52:17.635Z,100516.56
2023-04-05T20:54:47.194Z,100512.84
2023-04-05T20:57:16.169Z,100514.34
2023-04-05T20:59:44.741Z,100517.44
2023-04-05T21:02:13.640Z,100515.50
2023-04-05T21:04:42.593Z,100510.16
2023-04-05T21:07:12.066Z,100511.63
2023-04-05T21:09:42.148Z,100508.78
2023-04-05T21:12:11.348Z,100508.59
2023-04-05T21:14:40.000Z,100501.34
2023-04-05T21:17:08.719Z,100505.41
2023-04-05T21:19:37.434Z,100493.91
2023-04-05T21:22:06.108Z,100502.44
2023-04-05T21:24:37.827Z,100496.94
2023-04-05T21:27:08.041Z,100500.03
2023-04-05T21:29:36.658Z,100502.25
2023-04-05T21:32:06.444Z,100496.81
2023-04-05T21:34:35.143Z,100492.34
2023-04-05T21:37:03.915Z,100495.63
2023-04-05T21:39:32.786Z,100500.66
2023-04-05T21:42:01.530Z,100498.72
2023-04-05T21:44:32.541Z,100496.75
2023-04-05T21:47:02.294Z,100497.47
2023-04-05T21:49:31.011Z,100493.75
2023-04-05T21:51:59.759Z,100489.28
2023-04-05T21:54:28.386Z,100488.16
2023-04-05T21:56:57.198Z,100487.13
2023-04-05T21:59:31.638Z,100490.25
2023-04-05T22:02:02.275Z,100486.53
2023-04-05T22:04:31.049Z,100492.28
2023-04-05T22:06:59.587Z,100483.34
2023-04-05T22:09:29.145Z,100493.41
2023-04-05T22:11:58.069Z,100490.47
2023-04-05T22:14:32.640Z,100485.13
2023-04-05T22:17:02.450Z,100479.66
2023-04-05T22:19:31.163Z,100485.59
2023-04-05T22:22:02.922Z,100477.53
2023-04-05T22:24:31.931Z,100473.03
2023-04-05T22:27:05.023Z,100475.34
2023-04-05T22:29:33.805Z,100468.13
2023-04-05T22:32:03.922Z,100471.34
2023-04-05T22:34:36.426Z,100468.50
2023-04-05T22:37:07.670Z,100469.84
2023-04-05T22:39:36.390Z,100472.22
2023-04-05T22:42:07.767Z,100478.72
2023-04-05T22:44:36.466Z,100474.00
2023-04-05T22:47:08.860Z,100471.97
2023-04-05T22:49:37.462Z,100464.81
2023-04-05T22:52:06.218Z,100460.25
2023-04-05T22:54:34.785Z,100460.88
2023-04-05T22:57:03.364Z,100471.88
2023-04-05T22:59:31.990Z,100464.81
2023-04-05T23:02:00.614Z,100459.47
2023-04-05T23:04:30.710Z,100458.47
2023-04-05T23:06:59.284Z,100458.38
2023-04-05T23:09:28.572Z,100455.72
2023-04-05T23:11:57.215Z,100463.31
2023-04-05T23:14:27.226Z,100453.56
2023-04-05T23:16:55.738Z,100449.81
2023-04-05T23:19:24.274Z,100444.47
2023-04-05T23:21:55.533Z,100438.84
2023-04-05T23:24:24.197Z,100447.31
2023-04-05T23:26:52.816Z,100446.34
2023-04-05T23:29:21.477Z,100437.47
2023-04-05T23:31:50.156Z,100432.13
2023-04-05T23:34:18.776Z,100435.31
2023-04-05T23:36:47.474Z,100438.63
2023-04-05T23:39:17.395Z,100444.44
2023-04-05T23:41:45.937Z,100435.59
2023-04-05T23:44:14.423Z,100433.53
2023-04-05T23:46:42.966Z,100431.56
2023-04-05T23:49:11.654Z,100436.56
2023-04-05T23:51:40.162Z,100427.63
2023-04-05T23:54:10.584Z,100427.44
2023-04-05T23:56:41.042Z,100425.56
2023-04-05T23:59:09.855Z,100419.28
